sensor_id;sensor_type;location;lat;lon;timestamp;P1;durP1;ratioP1;P2;durP2;ratioP2
48945;SDS011;34999;50.940;3.998;2022-08-03T00:00:35;6.70;;;1.90;;
48945;SDS011;34999;50.940;3.998;2022-08-03T00:03:05;3.40;;;2.20;;
48945;SDS011;34999;50.940;3.998;2022-08-03T00:05:35;3.03;;;2.00;;
48945;SDS011;34999;50.940;3.998;2022-08-03T00:08:04;3.77;;;1.70;;
48945;SDS011;34999;50.940;3.998;2022-08-03T00:10:32;6.57;;;2.00;;
48945;SDS011;34999;50.940;3.998;2022-08-03T00:13:01;4.27;;;2.00;;
48945;SDS011;34999;50.940;3.998;2022-08-03T00:15:29;4.27;;;1.90;;
48945;SDS011;34999;50.940;3.998;2022-08-03T00:17:58;1.90;;;1.60;;
48945;SDS011;34999;50.940;3.998;2022-08-03T00:20:26;7.23;;;2.00;;
48945;SDS011;34999;50.940;3.998;2022-08-03T00:22:56;7.57;;;1.90;;
48945;SDS011;34999;50.940;3.998;2022-08-03T00:25:25;8.10;;;2.07;;
48945;SDS011;34999;50.940;3.998;2022-08-03T00:27:53;6.27;;;2.20;;
48945;SDS011;34999;50.940;3.998;2022-08-03T00:30:23;3.87;;;2.03;;
48945;SDS011;34999;50.940;3.998;2022-08-03T00:32:56;6.83;;;2.10;;
48945;SDS011;34999;50.940;3.998;2022-08-03T00:35:29;4.40;;;1.87;;
48945;SDS011;34999;50.940;3.998;2022-08-03T00:41:37;9.60;;;2.10;;
48945;SDS011;34999;50.940;3.998;2022-08-03T00:44:05;5.83;;;2.20;;
48945;SDS011;34999;50.940;3.998;2022-08-03T00:49:30;8.47;;;2.10;;
48945;SDS011;34999;50.940;3.998;2022-08-03T00:51:59;6.60;;;2.40;;
48945;SDS011;34999;50.940;3.998;2022-08-03T00:54:43;8.03;;;2.30;;
48945;SDS011;34999;50.940;3.998;2022-08-03T00:57:13;4.17;;;2.07;;
48945;SDS011;34999;50.940;3.998;2022-08-03T00:59:41;8.27;;;2.40;;
48945;SDS011;34999;50.940;3.998;2022-08-03T01:02:11;6.53;;;1.90;;
48945;SDS011;34999;50.940;3.998;2022-08-03T01:04:40;3.77;;;1.83;;
48945;SDS011;34999;50.940;3.998;2022-08-03T01:10:12;7.07;;;2.13;;
48945;SDS011;34999;50.940;3.998;2022-08-03T01:12:51;5.30;;;1.77;;
48945;SDS011;34999;50.940;3.998;2022-08-03T01:15:24;2.63;;;2.00;;
48945;SDS011;34999;50.940;3.998;2022-08-03T01:17:59;6.07;;;2.03;;
48945;SDS011;34999;50.940;3.998;2022-08-03T01:20:35;5.93;;;2.00;;
48945;SDS011;34999;50.940;3.998;2022-08-03T01:23:16;3.43;;;2.07;;
48945;SDS011;34999;50.940;3.998;2022-08-03T01:26:08;4.97;;;2.40;;
48945;SDS011;34999;50.940;3.998;2022-08-03T01:28:55;4.53;;;2.20;;
48945;SDS011;34999;50.940;3.998;2022-08-03T01:31:34;5.37;;;1.90;;
48945;SDS011;34999;50.940;3.998;2022-08-03T01:34:28;2.10;;;1.80;;
48945;SDS011;34999;50.940;3.998;2022-08-03T01:37:02;4.90;;;2.00;;
48945;SDS011;34999;50.940;3.998;2022-08-03T01:39:33;10.67;;;2.10;;
48945;SDS011;34999;50.940;3.998;2022-08-03T01:42:05;7.10;;;1.93;;
48945;SDS011;34999;50.940;3.998;2022-08-03T01:44:37;8.60;;;2.23;;
48945;SDS011;34999;50.940;3.998;2022-08-03T01:47:09;6.57;;;2.27;;
48945;SDS011;34999;50.940;3.998;2022-08-03T01:49:39;2.63;;;2.27;;
48945;SDS011;34999;50.940;3.998;2022-08-03T01:52:11;6.20;;;2.37;;
48945;SDS011;34999;50.940;3.998;2022-08-03T01:54:45;3.73;;;2.17;;
48945;SDS011;34999;50.940;3.998;2022-08-03T01:57:17;4.03;;;1.90;;
48945;SDS011;34999;50.940;3.998;2022-08-03T01:59:48;5.00;;;2.03;;
48945;SDS011;34999;50.940;3.998;2022-08-03T02:02:18;3.40;;;1.80;;
48945;SDS011;34999;50.940;3.998;2022-08-03T02:05:00;4.60;;;1.90;;
48945;SDS011;34999;50.940;3.998;2022-08-03T02:07:36;6.23;;;1.90;;
48945;SDS011;34999;50.940;3.998;2022-08-03T02:10:10;5.50;;;1.77;;
48945;SDS011;34999;50.940;3.998;2022-08-03T02:13:01;4.73;;;2.00;;
48945;SDS011;34999;50.940;3.998;2022-08-03T02:15:33;6.53;;;2.10;;
48945;SDS011;34999;50.940;3.998;2022-08-03T02:18:05;5.30;;;2.10;;
48945;SDS011;34999;50.940;3.998;2022-08-03T02:20:36;5.27;;;1.93;;
48945;SDS011;34999;50.940;3.998;2022-08-03T02:26:14;3.47;;;1.80;;
48945;SDS011;34999;50.940;3.998;2022-08-03T02:28:46;10.37;;;2.60;;
48945;SDS011;34999;50.940;3.998;2022-08-03T02:31:21;5.07;;;2.17;;
48945;SDS011;34999;50.940;3.998;2022-08-03T02:33:56;6.50;;;2.00;;
48945;SDS011;34999;50.940;3.998;2022-08-03T02:36:34;5.37;;;1.90;;
48945;SDS011;34999;50.940;3.998;2022-08-03T02:42:58;2.77;;;1.83;;
48945;SDS011;34999;50.940;3.998;2022-08-03T02:45:34;2.97;;;2.10;;
48945;SDS011;34999;50.940;3.998;2022-08-03T02:48:10;5.00;;;1.90;;
48945;SDS011;34999;50.940;3.998;2022-08-03T02:50:50;2.63;;;1.97;;
48945;SDS011;34999;50.940;3.998;2022-08-03T02:53:22;2.33;;;1.90;;
48945;SDS011;34999;50.940;3.998;2022-08-03T02:55:51;7.43;;;2.50;;
48945;SDS011;34999;50.940;3.998;2022-08-03T02:58:21;3.87;;;2.00;;
48945;SDS011;34999;50.940;3.998;2022-08-03T03:00:51;5.03;;;2.40;;
48945;SDS011;34999;50.940;3.998;2022-08-03T03:03:21;6.73;;;2.30;;
48945;SDS011;34999;50.940;3.998;2022-08-03T03:05:54;3.23;;;2.50;;
48945;SDS011;34999;50.940;3.998;2022-08-03T03:08:25;5.37;;;2.20;;
48945;SDS011;34999;50.940;3.998;2022-08-03T03:10:55;5.77;;;2.30;;
48945;SDS011;34999;50.940;3.998;2022-08-03T03:13:26;3.67;;;2.13;;
48945;SDS011;34999;50.940;3.998;2022-08-03T03:15:58;5.33;;;2.20;;
48945;SDS011;34999;50.940;3.998;2022-08-03T03:18:30;3.73;;;2.40;;
48945;SDS011;34999;50.940;3.998;2022-08-03T03:21:02;4.40;;;2.50;;
48945;SDS011;34999;50.940;3.998;2022-08-03T03:23:31;6.80;;;2.10;;
48945;SDS011;34999;50.940;3.998;2022-08-03T03:26:03;5.50;;;1.97;;
48945;SDS011;34999;50.940;3.998;2022-08-03T03:28:33;2.83;;;2.20;;
48945;SDS011;34999;50.940;3.998;2022-08-03T03:31:03;3.40;;;2.20;;
48945;SDS011;34999;50.940;3.998;2022-08-03T03:33:33;6.93;;;2.17;;
48945;SDS011;34999;50.940;3.998;2022-08-03T03:39:08;5.23;;;2.30;;
48945;SDS011;34999;50.940;3.998;2022-08-03T03:41:41;6.47;;;2.47;;
48945;SDS011;34999;50.940;3.998;2022-08-03T03:47:19;6.13;;;2.67;;
48945;SDS011;34999;50.940;3.998;2022-08-03T03:49:58;4.27;;;2.10;;
48945;SDS011;34999;50.940;3.998;2022-08-03T03:52:28;5.50;;;2.47;;
48945;SDS011;34999;50.940;3.998;2022-08-03T03:54:59;6.10;;;2.50;;
48945;SDS011;34999;50.940;3.998;2022-08-03T03:57:27;6.03;;;2.53;;
48945;SDS011;34999;50.940;3.998;2022-08-03T03:59:55;7.83;;;2.80;;
48945;SDS011;34999;50.940;3.998;2022-08-03T04:02:24;2.73;;;2.47;;
48945;SDS011;34999;50.940;3.998;2022-08-03T04:04:54;5.30;;;2.83;;
48945;SDS011;34999;50.940;3.998;2022-08-03T04:07:41;4.67;;;2.83;;
48945;SDS011;34999;50.940;3.998;2022-08-03T04:10:33;6.47;;;2.80;;
48945;SDS011;34999;50.940;3.998;2022-08-03T04:13:23;5.57;;;2.60;;
48945;SDS011;34999;50.940;3.998;2022-08-03T04:15:54;8.33;;;2.90;;
48945;SDS011;34999;50.940;3.998;2022-08-03T04:18:24;5.70;;;2.43;;
48945;SDS011;34999;50.940;3.998;2022-08-03T04:20:55;4.93;;;2.40;;
48945;SDS011;34999;50.940;3.998;2022-08-03T04:23:27;4.50;;;2.60;;
48945;SDS011;34999;50.940;3.998;2022-08-03T04:25:58;5.70;;;2.70;;
48945;SDS011;34999;50.940;3.998;2022-08-03T04:28:29;6.93;;;2.87;;
48945;SDS011;34999;50.940;3.998;2022-08-03T04:30:59;6.97;;;2.70;;
48945;SDS011;34999;50.940;3.998;2022-08-03T04:39:22;7.57;;;2.60;;
48945;SDS011;34999;50.940;3.998;2022-08-03T04:41:54;5.13;;;3.03;;
48945;SDS011;34999;50.940;3.998;2022-08-03T04:44:42;7.13;;;2.80;;
48945;SDS011;34999;50.940;3.998;2022-08-03T04:47:12;7.87;;;2.60;;
48945;SDS011;34999;50.940;3.998;2022-08-03T04:49:42;3.30;;;2.77;;
48945;SDS011;34999;50.940;3.998;2022-08-03T04:52:11;11.53;;;3.30;;
48945;SDS011;34999;50.940;3.998;2022-08-03T04:54:40;8.00;;;2.90;;
48945;SDS011;34999;50.940;3.998;2022-08-03T04:57:17;4.47;;;2.63;;
48945;SDS011;34999;50.940;3.998;2022-08-03T04:59:49;4.50;;;2.60;;
48945;SDS011;34999;50.940;3.998;2022-08-03T05:02:28;6.97;;;2.90;;
48945;SDS011;34999;50.940;3.998;2022-08-03T05:04:57;6.53;;;2.80;;
48945;SDS011;34999;50.940;3.998;2022-08-03T05:07:26;4.13;;;2.60;;
48945;SDS011;34999;50.940;3.998;2022-08-03T05:10:03;6.23;;;2.83;;
48945;SDS011;34999;50.940;3.998;2022-08-03T05:12:42;6.87;;;3.30;;
48945;SDS011;34999;50.940;3.998;2022-08-03T05:15:12;5.50;;;2.63;;
48945;SDS011;34999;50.940;3.998;2022-08-03T05:17:41;7.30;;;2.60;;
48945;SDS011;34999;50.940;3.998;2022-08-03T05:23:04;13.63;;;3.03;;
48945;SDS011;34999;50.940;3.998;2022-08-03T05:25:32;10.87;;;2.90;;
48945;SDS011;34999;50.940;3.998;2022-08-03T05:28:02;6.70;;;2.77;;
48945;SDS011;34999;50.940;3.998;2022-08-03T05:30:31;9.40;;;3.07;;
48945;SDS011;34999;50.940;3.998;2022-08-03T05:33:00;6.93;;;3.23;;
48945;SDS011;34999;50.940;3.998;2022-08-03T05:35:30;11.67;;;2.63;;
48945;SDS011;34999;50.940;3.998;2022-08-03T05:38:20;5.57;;;2.73;;
48945;SDS011;34999;50.940;3.998;2022-08-03T05:40:54;7.53;;;2.43;;
48945;SDS011;34999;50.940;3.998;2022-08-03T05:43:46;7.67;;;2.80;;
48945;SDS011;34999;50.940;3.998;2022-08-03T05:46:15;5.63;;;2.53;;
48945;SDS011;34999;50.940;3.998;2022-08-03T05:48:43;6.87;;;2.60;;
48945;SDS011;34999;50.940;3.998;2022-08-03T05:51:11;8.47;;;2.73;;
48945;SDS011;34999;50.940;3.998;2022-08-03T05:53:40;11.63;;;2.67;;
48945;SDS011;34999;50.940;3.998;2022-08-03T05:56:09;11.53;;;2.53;;
48945;SDS011;34999;50.940;3.998;2022-08-03T05:58:41;8.37;;;2.73;;
48945;SDS011;34999;50.940;3.998;2022-08-03T06:01:11;5.70;;;2.47;;
48945;SDS011;34999;50.940;3.998;2022-08-03T06:03:40;6.50;;;2.43;;
48945;SDS011;34999;50.940;3.998;2022-08-03T06:06:08;13.80;;;2.90;;
48945;SDS011;34999;50.940;3.998;2022-08-03T06:08:37;6.17;;;2.70;;
48945;SDS011;34999;50.940;3.998;2022-08-03T06:11:05;6.57;;;2.10;;
48945;SDS011;34999;50.940;3.998;2022-08-03T06:13:34;5.90;;;2.30;;
48945;SDS011;34999;50.940;3.998;2022-08-03T06:16:03;4.73;;;2.27;;
48945;SDS011;34999;50.940;3.998;2022-08-03T06:18:33;6.03;;;2.20;;
48945;SDS011;34999;50.940;3.998;2022-08-03T06:21:03;3.40;;;2.40;;
48945;SDS011;34999;50.940;3.998;2022-08-03T06:23:40;6.57;;;2.50;;
48945;SDS011;34999;50.940;3.998;2022-08-03T06:26:19;5.07;;;2.33;;
48945;SDS011;34999;50.940;3.998;2022-08-03T06:28:47;4.80;;;2.20;;
48945;SDS011;34999;50.940;3.998;2022-08-03T06:31:18;8.20;;;2.43;;
48945;SDS011;34999;50.940;3.998;2022-08-03T06:33:49;14.47;;;2.53;;
48945;SDS011;34999;50.940;3.998;2022-08-03T06:36:41;5.43;;;2.07;;
48945;SDS011;34999;50.940;3.998;2022-08-03T06:39:14;5.67;;;2.37;;
48945;SDS011;34999;50.940;3.998;2022-08-03T06:41:48;4.57;;;2.10;;
48945;SDS011;34999;50.940;3.998;2022-08-03T06:44:17;7.63;;;2.60;;
48945;SDS011;34999;50.940;3.998;2022-08-03T06:46:46;6.47;;;2.20;;
48945;SDS011;34999;50.940;3.998;2022-08-03T06:49:17;9.37;;;2.33;;
48945;SDS011;34999;50.940;3.998;2022-08-03T06:51:46;10.47;;;2.47;;
48945;SDS011;34999;50.940;3.998;2022-08-03T06:54:31;6.60;;;2.07;;
48945;SDS011;34999;50.940;3.998;2022-08-03T06:57:03;6.67;;;2.30;;
48945;SDS011;34999;50.940;3.998;2022-08-03T06:59:33;8.57;;;2.50;;
48945;SDS011;34999;50.940;3.998;2022-08-03T07:02:22;8.17;;;2.00;;
48945;SDS011;34999;50.940;3.998;2022-08-03T07:04:55;5.23;;;2.20;;
48945;SDS011;34999;50.940;3.998;2022-08-03T07:07:23;9.70;;;2.50;;
48945;SDS011;34999;50.940;3.998;2022-08-03T07:09:52;5.97;;;2.07;;
48945;SDS011;34999;50.940;3.998;2022-08-03T07:12:24;10.40;;;1.87;;
48945;SDS011;34999;50.940;3.998;2022-08-03T07:14:53;12.03;;;1.90;;
48945;SDS011;34999;50.940;3.998;2022-08-03T07:17:27;7.00;;;1.90;;
48945;SDS011;34999;50.940;3.998;2022-08-03T07:19:57;7.27;;;1.87;;
48945;SDS011;34999;50.940;3.998;2022-08-03T07:22:26;6.70;;;2.00;;
48945;SDS011;34999;50.940;3.998;2022-08-03T07:24:55;8.20;;;1.93;;
48945;SDS011;34999;50.940;3.998;2022-08-03T07:27:24;4.90;;;2.20;;
48945;SDS011;34999;50.940;3.998;2022-08-03T07:29:54;7.93;;;2.43;;
48945;SDS011;34999;50.940;3.998;2022-08-03T07:32:23;5.97;;;2.00;;
48945;SDS011;34999;50.940;3.998;2022-08-03T07:34:52;5.83;;;2.00;;
48945;SDS011;34999;50.940;3.998;2022-08-03T07:37:28;7.73;;;1.90;;
48945;SDS011;34999;50.940;3.998;2022-08-03T07:39:57;5.93;;;2.30;;
48945;SDS011;34999;50.940;3.998;2022-08-03T07:42:28;5.15;;;2.00;;
48945;SDS011;34999;50.940;3.998;2022-08-03T07:44:59;8.93;;;2.10;;
48945;SDS011;34999;50.940;3.998;2022-08-03T07:47:29;6.78;;;2.40;;
48945;SDS011;34999;50.940;3.998;2022-08-03T07:50:01;11.52;;;1.95;;
48945;SDS011;34999;50.940;3.998;2022-08-03T07:52:32;9.52;;;1.90;;
48945;SDS011;34999;50.940;3.998;2022-08-03T07:55:17;8.70;;;2.00;;
48945;SDS011;34999;50.940;3.998;2022-08-03T07:57:57;8.20;;;2.03;;
48945;SDS011;34999;50.940;3.998;2022-08-03T08:00:30;4.47;;;2.00;;
48945;SDS011;34999;50.940;3.998;2022-08-03T08:02:58;12.90;;;2.10;;
48945;SDS011;34999;50.940;3.998;2022-08-03T08:05:27;8.80;;;1.90;;
48945;SDS011;34999;50.940;3.998;2022-08-03T08:07:57;8.90;;;2.20;;
48945;SDS011;34999;50.940;3.998;2022-08-03T08:10:26;8.13;;;2.30;;
48945;SDS011;34999;50.940;3.998;2022-08-03T08:12:55;6.30;;;2.03;;
48945;SDS011;34999;50.940;3.998;2022-08-03T08:15:23;12.68;;;2.00;;
48945;SDS011;34999;50.940;3.998;2022-08-03T08:17:53;9.27;;;2.15;;
48945;SDS011;34999;50.940;3.998;2022-08-03T08:20:23;9.85;;;2.30;;
48945;SDS011;34999;50.940;3.998;2022-08-03T08:23:01;5.50;;;2.33;;
48945;SDS011;34999;50.940;3.998;2022-08-03T08:25:51;5.97;;;1.80;;
48945;SDS011;34999;50.940;3.998;2022-08-03T08:28:20;7.25;;;2.00;;
48945;SDS011;34999;50.940;3.998;2022-08-03T08:30:58;6.05;;;2.08;;
48945;SDS011;34999;50.940;3.998;2022-08-03T08:33:28;8.90;;;2.30;;
48945;SDS011;34999;50.940;3.998;2022-08-03T08:36:16;10.73;;;2.10;;
48945;SDS011;34999;50.940;3.998;2022-08-03T08:38:46;9.27;;;2.22;;
48945;SDS011;34999;50.940;3.998;2022-08-03T08:41:15;8.02;;;2.00;;
48945;SDS011;34999;50.940;3.998;2022-08-03T08:43:43;8.20;;;1.90;;
48945;SDS011;34999;50.940;3.998;2022-08-03T08:46:12;8.07;;;2.20;;
48945;SDS011;34999;50.940;3.998;2022-08-03T08:48:49;8.38;;;1.95;;
48945;SDS011;34999;50.940;3.998;2022-08-03T08:51:20;6.30;;;1.88;;
48945;SDS011;34999;50.940;3.998;2022-08-03T08:54:15;8.60;;;1.85;;
48945;SDS011;34999;50.940;3.998;2022-08-03T08:56:52;15.07;;;2.33;;
48945;SDS011;34999;50.940;3.998;2022-08-03T08:59:25;12.15;;;2.42;;
48945;SDS011;34999;50.940;3.998;2022-08-03T09:02:14;9.48;;;1.80;;
48945;SDS011;34999;50.940;3.998;2022-08-03T09:04:42;6.43;;;1.77;;
48945;SDS011;34999;50.940;3.998;2022-08-03T09:07:14;5.13;;;1.95;;
48945;SDS011;34999;50.940;3.998;2022-08-03T09:09:56;10.25;;;2.13;;
48945;SDS011;34999;50.940;3.998;2022-08-03T09:12:39;6.78;;;1.60;;
48945;SDS011;34999;50.940;3.998;2022-08-03T09:15:19;7.60;;;1.80;;
48945;SDS011;34999;50.940;3.998;2022-08-03T09:17:50;10.65;;;2.00;;
48945;SDS011;34999;50.940;3.998;2022-08-03T09:20:20;7.80;;;2.13;;
48945;SDS011;34999;50.940;3.998;2022-08-03T09:22:53;8.80;;;1.80;;
48945;SDS011;34999;50.940;3.998;2022-08-03T09:25:31;6.68;;;1.85;;
48945;SDS011;34999;50.940;3.998;2022-08-03T09:28:05;4.32;;;1.65;;
48945;SDS011;34999;50.940;3.998;2022-08-03T09:30:36;9.05;;;1.90;;
48945;SDS011;34999;50.940;3.998;2022-08-03T09:33:05;5.47;;;1.63;;
48945;SDS011;34999;50.940;3.998;2022-08-03T09:35:39;6.90;;;1.80;;
48945;SDS011;34999;50.940;3.998;2022-08-03T09:38:24;9.52;;;2.17;;
48945;SDS011;34999;50.940;3.998;2022-08-03T09:40:54;6.25;;;1.65;;
48945;SDS011;34999;50.940;3.998;2022-08-03T09:43:26;4.10;;;1.80;;
48945;SDS011;34999;50.940;3.998;2022-08-03T09:46:01;2.95;;;1.40;;
48945;SDS011;34999;50.940;3.998;2022-08-03T09:48:30;4.93;;;1.85;;
48945;SDS011;34999;50.940;3.998;2022-08-03T09:51:00;5.82;;;1.80;;
48945;SDS011;34999;50.940;3.998;2022-08-03T09:53:52;7.00;;;1.60;;
48945;SDS011;34999;50.940;3.998;2022-08-03T09:56:37;5.60;;;1.80;;
48945;SDS011;34999;50.940;3.998;2022-08-03T09:59:11;4.03;;;1.30;;
48945;SDS011;34999;50.940;3.998;2022-08-03T10:01:40;5.80;;;2.08;;
48945;SDS011;34999;50.940;3.998;2022-08-03T10:04:12;4.35;;;1.40;;
48945;SDS011;34999;50.940;3.998;2022-08-03T10:06:42;9.50;;;1.80;;
48945;SDS011;34999;50.940;3.998;2022-08-03T10:09:12;4.65;;;1.75;;
48945;SDS011;34999;50.940;3.998;2022-08-03T10:11:43;3.80;;;1.48;;
48945;SDS011;34999;50.940;3.998;2022-08-03T10:14:13;5.22;;;1.75;;
48945;SDS011;34999;50.940;3.998;2022-08-03T10:16:46;4.65;;;1.60;;
48945;SDS011;34999;50.940;3.998;2022-08-03T10:19:15;7.63;;;1.80;;
48945;SDS011;34999;50.940;3.998;2022-08-03T10:21:45;4.30;;;1.40;;
48945;SDS011;34999;50.940;3.998;2022-08-03T10:24:19;4.80;;;1.70;;
48945;SDS011;34999;50.940;3.998;2022-08-03T10:26:55;4.10;;;1.40;;
48945;SDS011;34999;50.940;3.998;2022-08-03T10:29:29;7.25;;;1.33;;
48945;SDS011;34999;50.940;3.998;2022-08-03T10:32:01;7.63;;;1.52;;
48945;SDS011;34999;50.940;3.998;2022-08-03T10:34:34;4.72;;;1.55;;
48945;SDS011;34999;50.940;3.998;2022-08-03T10:37:10;4.10;;;1.40;;
48945;SDS011;34999;50.940;3.998;2022-08-03T10:39:41;3.03;;;1.33;;
48945;SDS011;34999;50.940;3.998;2022-08-03T10:42:23;4.25;;;1.70;;
48945;SDS011;34999;50.940;3.998;2022-08-03T10:45:02;6.57;;;1.70;;
48945;SDS011;34999;50.940;3.998;2022-08-03T10:47:32;2.33;;;1.58;;
48945;SDS011;34999;50.940;3.998;2022-08-03T10:50:02;5.05;;;1.30;;
48945;SDS011;34999;50.940;3.998;2022-08-03T10:52:31;1.98;;;1.60;;
48945;SDS011;34999;50.940;3.998;2022-08-03T10:58:15;11.55;;;1.50;;
48945;SDS011;34999;50.940;3.998;2022-08-03T11:04:26;3.83;;;1.27;;
48945;SDS011;34999;50.940;3.998;2022-08-03T11:09:46;5.03;;;1.30;;
48945;SDS011;34999;50.940;3.998;2022-08-03T11:12:20;4.88;;;1.20;;
48945;SDS011;34999;50.940;3.998;2022-08-03T11:14:59;2.38;;;1.33;;
48945;SDS011;34999;50.940;3.998;2022-08-03T11:17:29;6.03;;;1.38;;
48945;SDS011;34999;50.940;3.998;2022-08-03T11:20:27;3.60;;;1.20;;
48945;SDS011;34999;50.940;3.998;2022-08-03T11:23:11;3.42;;;1.05;;
48945;SDS011;34999;50.940;3.998;2022-08-03T11:28:37;3.47;;;1.20;;
48945;SDS011;34999;50.940;3.998;2022-08-03T11:34:17;4.03;;;1.35;;
48945;SDS011;34999;50.940;3.998;2022-08-03T11:39:50;2.72;;;1.20;;
48945;SDS011;34999;50.940;3.998;2022-08-03T11:45:13;1.50;;;1.05;;
48945;SDS011;34999;50.940;3.998;2022-08-03T11:47:44;3.40;;;1.17;;
48945;SDS011;34999;50.940;3.998;2022-08-03T11:50:17;5.40;;;0.90;;
48945;SDS011;34999;50.940;3.998;2022-08-03T11:52:47;4.72;;;1.17;;
48945;SDS011;34999;50.940;3.998;2022-08-03T11:55:17;5.13;;;1.17;;
48945;SDS011;34999;50.940;3.998;2022-08-03T11:57:47;1.60;;;1.10;;
48945;SDS011;34999;50.940;3.998;2022-08-03T12:00:37;1.60;;;1.10;;
48945;SDS011;34999;50.940;3.998;2022-08-03T12:03:08;2.90;;;1.42;;
48945;SDS011;34999;50.940;3.998;2022-08-03T12:05:41;3.05;;;0.85;;
48945;SDS011;34999;50.940;3.998;2022-08-03T12:08:18;3.28;;;1.23;;
48945;SDS011;34999;50.940;3.998;2022-08-03T12:10:58;3.45;;;1.23;;
48945;SDS011;34999;50.940;3.998;2022-08-03T12:13:35;1.45;;;1.20;;
48945;SDS011;34999;50.940;3.998;2022-08-03T12:16:27;3.75;;;1.65;;
48945;SDS011;34999;50.940;3.998;2022-08-03T12:18:58;2.00;;;1.10;;
48945;SDS011;34999;50.940;3.998;2022-08-03T12:21:28;3.25;;;1.35;;
48945;SDS011;34999;50.940;3.998;2022-08-03T12:23:57;1.20;;;1.10;;
48945;SDS011;34999;50.940;3.998;2022-08-03T12:26:26;3.00;;;1.30;;
48945;SDS011;34999;50.940;3.998;2022-08-03T12:28:55;1.20;;;1.10;;
48945;SDS011;34999;50.940;3.998;2022-08-03T12:31:24;2.50;;;1.25;;
48945;SDS011;34999;50.940;3.998;2022-08-03T12:33:58;3.58;;;1.40;;
48945;SDS011;34999;50.940;3.998;2022-08-03T12:36:29;3.88;;;1.05;;
48945;SDS011;34999;50.940;3.998;2022-08-03T12:38:59;5.95;;;1.30;;
48945;SDS011;34999;50.940;3.998;2022-08-03T12:41:32;4.50;;;1.40;;
48945;SDS011;34999;50.940;3.998;2022-08-03T12:44:02;5.55;;;1.10;;
48945;SDS011;34999;50.940;3.998;2022-08-03T12:46:32;2.25;;;1.00;;
48945;SDS011;34999;50.940;3.998;2022-08-03T12:49:04;3.08;;;1.13;;
48945;SDS011;34999;50.940;3.998;2022-08-03T12:51:35;3.80;;;1.25;;
48945;SDS011;34999;50.940;3.998;2022-08-03T12:54:04;2.72;;;1.10;;
48945;SDS011;34999;50.940;3.998;2022-08-03T12:56:33;4.32;;;1.30;;
48945;SDS011;34999;50.940;3.998;2022-08-03T13:02:00;6.32;;;1.42;;
48945;SDS011;34999;50.940;3.998;2022-08-03T13:04:35;3.08;;;1.40;;
48945;SDS011;34999;50.940;3.998;2022-08-03T13:07:05;2.05;;;1.10;;
48945;SDS011;34999;50.940;3.998;2022-08-03T13:09:40;1.73;;;1.20;;
48945;SDS011;34999;50.940;3.998;2022-08-03T13:12:10;3.13;;;1.15;;
48945;SDS011;34999;50.940;3.998;2022-08-03T13:14:39;6.00;;;1.50;;
48945;SDS011;34999;50.940;3.998;2022-08-03T13:17:08;1.50;;;1.40;;
48945;SDS011;34999;50.940;3.998;2022-08-03T13:19:38;2.65;;;1.38;;
48945;SDS011;34999;50.940;3.998;2022-08-03T13:22:10;4.57;;;1.40;;
48945;SDS011;34999;50.940;3.998;2022-08-03T13:24:40;3.75;;;1.55;;
48945;SDS011;34999;50.940;3.998;2022-08-03T13:27:10;2.95;;;1.20;;
48945;SDS011;34999;50.940;3.998;2022-08-03T13:29:59;4.22;;;1.70;;
48945;SDS011;34999;50.940;3.998;2022-08-03T13:32:29;1.88;;;1.20;;
48945;SDS011;34999;50.940;3.998;2022-08-03T13:34:59;4.03;;;1.58;;
48945;SDS011;34999;50.940;3.998;2022-08-03T13:37:28;3.92;;;1.20;;
48945;SDS011;34999;50.940;3.998;2022-08-03T13:39:57;5.20;;;1.33;;
48945;SDS011;34999;50.940;3.998;2022-08-03T13:42:32;3.08;;;1.90;;
48945;SDS011;34999;50.940;3.998;2022-08-03T13:45:02;2.05;;;1.20;;
48945;SDS011;34999;50.940;3.998;2022-08-03T13:47:31;2.40;;;1.38;;
48945;SDS011;34999;50.940;3.998;2022-08-03T13:50:01;1.75;;;1.50;;
48945;SDS011;34999;50.940;3.998;2022-08-03T13:52:30;3.20;;;1.25;;
48945;SDS011;34999;50.940;3.998;2022-08-03T13:55:00;3.30;;;1.20;;
48945;SDS011;34999;50.940;3.998;2022-08-03T13:57:30;6.10;;;1.52;;
48945;SDS011;34999;50.940;3.998;2022-08-03T14:00:19;1.77;;;1.33;;
48945;SDS011;34999;50.940;3.998;2022-08-03T14:02:57;2.13;;;1.27;;
48945;SDS011;34999;50.940;3.998;2022-08-03T14:05:44;1.13;;;1.05;;
48945;SDS011;34999;50.940;3.998;2022-08-03T14:08:13;1.38;;;1.27;;
48945;SDS011;34999;50.940;3.998;2022-08-03T14:10:42;1.30;;;1.23;;
48945;SDS011;34999;50.940;3.998;2022-08-03T14:13:12;5.65;;;1.27;;
48945;SDS011;34999;50.940;3.998;2022-08-03T14:15:43;3.50;;;1.20;;
48945;SDS011;34999;50.940;3.998;2022-08-03T14:18:16;1.92;;;1.48;;
48945;SDS011;34999;50.940;3.998;2022-08-03T14:21:00;1.40;;;1.30;;
48945;SDS011;34999;50.940;3.998;2022-08-03T14:23:33;3.55;;;1.40;;
48945;SDS011;34999;50.940;3.998;2022-08-03T14:26:03;2.67;;;1.38;;
48945;SDS011;34999;50.940;3.998;2022-08-03T14:28:35;1.20;;;1.20;;
48945;SDS011;34999;50.940;3.998;2022-08-03T14:31:03;2.80;;;1.20;;
48945;SDS011;34999;50.940;3.998;2022-08-03T14:33:52;1.63;;;1.35;;
48945;SDS011;34999;50.940;3.998;2022-08-03T14:36:21;5.15;;;1.45;;
48945;SDS011;34999;50.940;3.998;2022-08-03T14:38:50;5.35;;;1.20;;
48945;SDS011;34999;50.940;3.998;2022-08-03T14:41:23;2.80;;;1.23;;
48945;SDS011;34999;50.940;3.998;2022-08-03T14:43:52;2.42;;;1.20;;
48945;SDS011;34999;50.940;3.998;2022-08-03T14:46:27;1.20;;;1.13;;
48945;SDS011;34999;50.940;3.998;2022-08-03T14:48:57;1.23;;;1.23;;
48945;SDS011;34999;50.940;3.998;2022-08-03T14:51:46;3.88;;;1.42;;
48945;SDS011;34999;50.940;3.998;2022-08-03T14:54:20;2.38;;;1.30;;
48945;SDS011;34999;50.940;3.998;2022-08-03T14:56:49;1.58;;;1.48;;
48945;SDS011;34999;50.940;3.998;2022-08-03T14:59:18;6.45;;;1.15;;
48945;SDS011;34999;50.940;3.998;2022-08-03T15:01:46;3.97;;;1.10;;
48945;SDS011;34999;50.940;3.998;2022-08-03T15:04:33;4.57;;;1.50;;
48945;SDS011;34999;50.940;3.998;2022-08-03T15:07:02;1.40;;;1.15;;
48945;SDS011;34999;50.940;3.998;2022-08-03T15:09:31;3.55;;;1.23;;
48945;SDS011;34999;50.940;3.998;2022-08-03T15:12:00;1.33;;;1.33;;
48945;SDS011;34999;50.940;3.998;2022-08-03T15:14:30;1.70;;;1.42;;
48945;SDS011;34999;50.940;3.998;2022-08-03T15:17:04;1.85;;;1.23;;
48945;SDS011;34999;50.940;3.998;2022-08-03T15:19:32;1.73;;;1.20;;
48945;SDS011;34999;50.940;3.998;2022-08-03T15:22:22;4.30;;;1.30;;
48945;SDS011;34999;50.940;3.998;2022-08-03T15:25:00;1.48;;;1.02;;
48945;SDS011;34999;50.940;3.998;2022-08-03T15:27:49;1.17;;;1.08;;
48945;SDS011;34999;50.940;3.998;2022-08-03T15:30:28;3.05;;;1.40;;
48945;SDS011;34999;50.940;3.998;2022-08-03T15:32:59;2.35;;;1.30;;
48945;SDS011;34999;50.940;3.998;2022-08-03T15:35:28;2.90;;;1.15;;
48945;SDS011;34999;50.940;3.998;2022-08-03T15:37:58;3.20;;;1.55;;
48945;SDS011;34999;50.940;3.998;2022-08-03T15:40:29;1.50;;;1.40;;
48945;SDS011;34999;50.940;3.998;2022-08-03T15:42:58;1.35;;;1.25;;
48945;SDS011;34999;50.940;3.998;2022-08-03T15:45:27;1.60;;;1.45;;
48945;SDS011;34999;50.940;3.998;2022-08-03T15:48:02;1.30;;;1.10;;
48945;SDS011;34999;50.940;3.998;2022-08-03T15:50:31;3.00;;;1.20;;
48945;SDS011;34999;50.940;3.998;2022-08-03T15:53:01;1.63;;;1.30;;
48945;SDS011;34999;50.940;3.998;2022-08-03T15:55:29;4.85;;;1.13;;
48945;SDS011;34999;50.940;3.998;2022-08-03T15:57:58;1.52;;;1.10;;
48945;SDS011;34999;50.940;3.998;2022-08-03T16:00:46;1.55;;;1.30;;
48945;SDS011;34999;50.940;3.998;2022-08-03T16:03:14;2.75;;;1.10;;
48945;SDS011;34999;50.940;3.998;2022-08-03T16:05:43;1.45;;;1.35;;
48945;SDS011;34999;50.940;3.998;2022-08-03T16:08:12;3.78;;;1.10;;
48945;SDS011;34999;50.940;3.998;2022-08-03T16:10:41;5.47;;;1.30;;
48945;SDS011;34999;50.940;3.998;2022-08-03T16:13:09;1.25;;;1.13;;
48945;SDS011;34999;50.940;3.998;2022-08-03T16:15:38;2.85;;;1.35;;
48945;SDS011;34999;50.940;3.998;2022-08-03T16:18:06;2.35;;;1.33;;